sensor_id;sensor_type;location;lat;lon;timestamp;temperature;humidity
70807;DHT22;58882;52.170;5.386;2023-01-10T00:02:05;13.90;50.90
70807;DHT22;58882;52.170;5.386;2023-01-10T00:04:45;13.90;50.90
70807;DHT22;58882;52.170;5.386;2023-01-10T00:07:32;13.90;50.90
70807;DHT22;58882;52.170;5.386;2023-01-10T00:10:12;13.80;50.90
70807;DHT22;58882;52.170;5.386;2023-01-10T00:13:10;13.80;50.80
70807;DHT22;58882;52.170;5.386;2023-01-10T00:16:07;13.70;50.70
70807;DHT22;58882;52.170;5.386;2023-01-10T00:18:55;13.70;50.80
70807;DHT22;58882;52.170;5.386;2023-01-10T00:21:36;13.60;51.00
70807;DHT22;58882;52.170;5.386;2023-01-10T00:24:23;13.50;51.00
70807;DHT22;58882;52.170;5.386;2023-01-10T00:27:03;13.60;51.00
70807;DHT22;58882;52.170;5.386;2023-01-10T00:29:51;13.50;51.10
70807;DHT22;58882;52.170;5.386;2023-01-10T00:32:31;13.50;51.30
70807;DHT22;58882;52.170;5.386;2023-01-10T00:35:18;13.40;51.20
70807;DHT22;58882;52.170;5.386;2023-01-10T00:37:58;13.40;52.50
70807;DHT22;58882;52.170;5.386;2023-01-10T00:40:52;13.40;51.70
70807;DHT22;58882;52.170;5.386;2023-01-10T00:43:46;13.40;51.70
70807;DHT22;58882;52.170;5.386;2023-01-10T00:46:35;13.40;51.60
70807;DHT22;58882;52.170;5.386;2023-01-10T00:49:22;13.40;51.70
70807;DHT22;58882;52.170;5.386;2023-01-10T00:52:02;13.40;51.80
70807;DHT22;58882;52.170;5.386;2023-01-10T00:54:56;13.40;51.80
70807;DHT22;58882;52.170;5.386;2023-01-10T00:57:36;13.40;52.70
70807;DHT22;58882;52.170;5.386;2023-01-10T01:00:30;13.40;51.60
70807;DHT22;58882;52.170;5.386;2023-01-10T01:03:24;13.30;51.80
70807;DHT22;58882;52.170;5.386;2023-01-10T01:06:05;13.30;52.10
70807;DHT22;58882;52.170;5.386;2023-01-10T01:08:59;13.30;52.20
70807;DHT22;58882;52.170;5.386;2023-01-10T01:11:39;13.30;52.60
70807;DHT22;58882;52.170;5.386;2023-01-10T01:14:33;13.30;52.60
70807;DHT22;58882;52.170;5.386;2023-01-10T01:17:06;13.30;53.00
70807;DHT22;58882;52.170;5.386;2023-01-10T01:20:00;13.30;53.00
70807;DHT22;58882;52.170;5.386;2023-01-10T01:22:33;13.30;54.10
70807;DHT22;58882;52.170;5.386;2023-01-10T01:25:27;13.30;53.00
70807;DHT22;58882;52.170;5.386;2023-01-10T01:28:11;13.30;53.10
70807;DHT22;58882;52.170;5.386;2023-01-10T01:30:58;13.30;54.20
70807;DHT22;58882;52.170;5.386;2023-01-10T01:33:38;13.30;53.40
70807;DHT22;58882;52.170;5.386;2023-01-10T01:36:32;13.30;53.50
70807;DHT22;58882;52.170;5.386;2023-01-10T01:39:12;13.30;53.60
70807;DHT22;58882;52.170;5.386;2023-01-10T01:42:19;13.40;53.80
70807;DHT22;58882;52.170;5.386;2023-01-10T01:51:19;13.40;53.80
70807;DHT22;58882;52.170;5.386;2023-01-10T01:54:10;13.40;53.90
70807;DHT22;58882;52.170;5.386;2023-01-10T01:56:54;13.40;54.00
70807;DHT22;58882;52.170;5.386;2023-01-10T01:59:53;13.40;54.40
70807;DHT22;58882;52.170;5.386;2023-01-10T02:02:50;13.40;54.30
70807;DHT22;58882;52.170;5.386;2023-01-10T02:05:37;13.40;54.30
70807;DHT22;58882;52.170;5.386;2023-01-10T02:08:32;13.40;54.30
70807;DHT22;58882;52.170;5.386;2023-01-10T02:11:08;13.40;54.40
70807;DHT22;58882;52.170;5.386;2023-01-10T02:14:04;13.40;54.30
70807;DHT22;58882;52.170;5.386;2023-01-10T02:16:45;13.40;54.40
70807;DHT22;58882;52.170;5.386;2023-01-10T02:19:48;13.40;54.40
70807;DHT22;58882;52.170;5.386;2023-01-10T02:25:36;13.30;54.70
70807;DHT22;58882;52.170;5.386;2023-01-10T02:34:59;13.30;55.00
70807;DHT22;58882;52.170;5.386;2023-01-10T02:41:28;13.40;55.30
70807;DHT22;58882;52.170;5.386;2023-01-10T02:44:25;13.40;55.30
70807;DHT22;58882;52.170;5.386;2023-01-10T02:47:07;13.40;55.30
70807;DHT22;58882;52.170;5.386;2023-01-10T02:49:54;13.40;55.30
70807;DHT22;58882;52.170;5.386;2023-01-10T02:52:34;13.40;55.40
70807;DHT22;58882;52.170;5.386;2023-01-10T02:55:27;13.40;55.40
70807;DHT22;58882;52.170;5.386;2023-01-10T03:10:55;13.50;55.50
70807;DHT22;58882;52.170;5.386;2023-01-10T03:13:55;13.50;55.60
70807;DHT22;58882;52.170;5.386;2023-01-10T03:16:32;13.50;55.60
70807;DHT22;58882;52.170;5.386;2023-01-10T03:19:32;13.50;55.80
70807;DHT22;58882;52.170;5.386;2023-01-10T03:22:09;13.50;55.70
70807;DHT22;58882;52.170;5.386;2023-01-10T03:25:05;13.50;55.80
70807;DHT22;58882;52.170;5.386;2023-01-10T03:27:56;13.50;55.90
70807;DHT22;58882;52.170;5.386;2023-01-10T03:30:51;13.50;55.80
70807;DHT22;58882;52.170;5.386;2023-01-10T03:33:27;13.40;55.80
70807;DHT22;58882;52.170;5.386;2023-01-10T03:39:48;13.40;56.00
70807;DHT22;58882;52.170;5.386;2023-01-10T03:42:50;13.50;55.90
70807;DHT22;58882;52.170;5.386;2023-01-10T03:45:59;13.50;55.90
70807;DHT22;58882;52.170;5.386;2023-01-10T03:48:48;13.50;55.90
70807;DHT22;58882;52.170;5.386;2023-01-10T03:51:28;13.50;56.00
70807;DHT22;58882;52.170;5.386;2023-01-10T03:54:23;13.50;56.00
70807;DHT22;58882;52.170;5.386;2023-01-10T03:57:05;13.50;56.00
70807;DHT22;58882;52.170;5.386;2023-01-10T03:59:55;13.50;55.90
70807;DHT22;58882;52.170;5.386;2023-01-10T04:02:36;13.50;55.90
70807;DHT22;58882;52.170;5.386;2023-01-10T04:05:30;13.50;55.90
70807;DHT22;58882;52.170;5.386;2023-01-10T04:08:10;13.50;55.90
70807;DHT22;58882;52.170;5.386;2023-01-10T04:11:00;13.50;56.00
70807;DHT22;58882;52.170;5.386;2023-01-10T04:13:40;13.50;56.00
70807;DHT22;58882;52.170;5.386;2023-01-10T04:16:28;13.50;55.90
70807;DHT22;58882;52.170;5.386;2023-01-10T04:19:01;13.50;56.00
70807;DHT22;58882;52.170;5.386;2023-01-10T04:21:55;13.50;55.80
70807;DHT22;58882;52.170;5.386;2023-01-10T04:24:28;13.40;55.80
70807;DHT22;58882;52.170;5.386;2023-01-10T04:27:22;13.40;55.90
70807;DHT22;58882;52.170;5.386;2023-01-10T04:30:04;13.40;56.00
70807;DHT22;58882;52.170;5.386;2023-01-10T04:32:51;13.50;56.00
70807;DHT22;58882;52.170;5.386;2023-01-10T04:35:31;13.40;56.10
70807;DHT22;58882;52.170;5.386;2023-01-10T04:38:18;13.50;56.10
70807;DHT22;58882;52.170;5.386;2023-01-10T04:40:58;13.50;56.20
70807;DHT22;58882;52.170;5.386;2023-01-10T04:43:45;13.50;56.20
70807;DHT22;58882;52.170;5.386;2023-01-10T04:46:25;13.50;56.20
70807;DHT22;58882;52.170;5.386;2023-01-10T04:49:12;13.60;56.20
70807;DHT22;58882;52.170;5.386;2023-01-10T04:51:52;13.60;56.10
70807;DHT22;58882;52.170;5.386;2023-01-10T04:54:39;13.60;56.10
70807;DHT22;58882;52.170;5.386;2023-01-10T04:57:19;13.60;56.10
70807;DHT22;58882;52.170;5.386;2023-01-10T05:00:07;13.60;55.90
70807;DHT22;58882;52.170;5.386;2023-01-10T05:02:47;13.70;55.90
70807;DHT22;58882;52.170;5.386;2023-01-10T05:05:41;13.70;55.80
70807;DHT22;58882;52.170;5.386;2023-01-10T05:08:14;13.70;55.80
70807;DHT22;58882;52.170;5.386;2023-01-10T05:11:08;13.70;55.70
70807;DHT22;58882;52.170;5.386;2023-01-10T05:13:49;13.70;56.70
70807;DHT22;58882;52.170;5.386;2023-01-10T05:16:36;13.70;55.60
70807;DHT22;58882;52.170;5.386;2023-01-10T05:19:16;13.70;55.70
70807;DHT22;58882;52.170;5.386;2023-01-10T05:22:03;13.70;55.60
70807;DHT22;58882;52.170;5.386;2023-01-10T05:24:36;13.80;55.80
70807;DHT22;58882;52.170;5.386;2023-01-10T05:27:30;13.70;55.60
70807;DHT22;58882;52.170;5.386;2023-01-10T05:30:03;13.80;55.60
70807;DHT22;58882;52.170;5.386;2023-01-10T05:32:57;13.80;55.50
70807;DHT22;58882;52.170;5.386;2023-01-10T05:35:37;13.70;55.40
70807;DHT22;58882;52.170;5.386;2023-01-10T05:38:24;13.80;55.40
70807;DHT22;58882;52.170;5.386;2023-01-10T05:41:04;13.70;55.10
70807;DHT22;58882;52.170;5.386;2023-01-10T05:43:52;13.70;55.20
70807;DHT22;58882;52.170;5.386;2023-01-10T05:46:32;13.70;55.40
70807;DHT22;58882;52.170;5.386;2023-01-10T05:49:19;13.70;55.30
70807;DHT22;58882;52.170;5.386;2023-01-10T05:51:59;13.60;55.30
70807;DHT22;58882;52.170;5.386;2023-01-10T05:54:46;13.60;55.30
70807;DHT22;58882;52.170;5.386;2023-01-10T05:57:26;13.60;55.30
70807;DHT22;58882;52.170;5.386;2023-01-10T06:00:20;13.60;55.30
70807;DHT22;58882;52.170;5.386;2023-01-10T06:03:16;13.60;55.30
70807;DHT22;58882;52.170;5.386;2023-01-10T06:05:56;13.50;55.40
70807;DHT22;58882;52.170;5.386;2023-01-10T06:08:43;13.50;55.50
70807;DHT22;58882;52.170;5.386;2023-01-10T06:11:23;13.50;55.40
70807;DHT22;58882;52.170;5.386;2023-01-10T06:14:17;13.50;55.50
70807;DHT22;58882;52.170;5.386;2023-01-10T06:16:57;13.50;55.60
70807;DHT22;58882;52.170;5.386;2023-01-10T06:19:44;13.40;55.60
70807;DHT22;58882;52.170;5.386;2023-01-10T06:22:24;13.40;55.60
70807;DHT22;58882;52.170;5.386;2023-01-10T06:25:13;13.40;55.60
70807;DHT22;58882;52.170;5.386;2023-01-10T06:27:46;13.40;55.70
70807;DHT22;58882;52.170;5.386;2023-01-10T06:30:41;13.40;55.70
70807;DHT22;58882;52.170;5.386;2023-01-10T06:33:37;13.40;55.80
70807;DHT22;58882;52.170;5.386;2023-01-10T06:36:31;13.40;55.70
70807;DHT22;58882;52.170;5.386;2023-01-10T06:39:11;13.40;55.70
70807;DHT22;58882;52.170;5.386;2023-01-10T06:41:59;13.40;55.70
70807;DHT22;58882;52.170;5.386;2023-01-10T06:44:39;13.40;55.60
70807;DHT22;58882;52.170;5.386;2023-01-10T06:47:26;13.40;55.70
70807;DHT22;58882;52.170;5.386;2023-01-10T06:50:07;13.40;55.70
70807;DHT22;58882;52.170;5.386;2023-01-10T06:53:03;13.40;55.60
70807;DHT22;58882;52.170;5.386;2023-01-10T06:55:36;13.40;55.70
70807;DHT22;58882;52.170;5.386;2023-01-10T06:58:31;13.40;55.70
70807;DHT22;58882;52.170;5.386;2023-01-10T07:01:06;13.40;56.70
70807;DHT22;58882;52.170;5.386;2023-01-10T07:04:00;13.40;55.70
70807;DHT22;58882;52.170;5.386;2023-01-10T07:06:40;13.40;55.60
70807;DHT22;58882;52.170;5.386;2023-01-10T07:09:27;13.50;55.70
70807;DHT22;58882;52.170;5.386;2023-01-10T07:12:01;13.40;56.10
70807;DHT22;58882;52.170;5.386;2023-01-10T07:14:55;13.50;56.30
70807;DHT22;58882;52.170;5.386;2023-01-10T07:17:35;13.60;56.20
70807;DHT22;58882;52.170;5.386;2023-01-10T07:20:29;13.80;56.10
70807;DHT22;58882;52.170;5.386;2023-01-10T07:23:09;13.90;55.90
70807;DHT22;58882;52.170;5.386;2023-01-10T07:26:05;14.00;55.70
70807;DHT22;58882;52.170;5.386;2023-01-10T07:28:50;14.10;55.40
70807;DHT22;58882;52.170;5.386;2023-01-10T07:31:43;14.20;55.20
70807;DHT22;58882;52.170;5.386;2023-01-10T07:34:23;14.30;54.90
70807;DHT22;58882;52.170;5.386;2023-01-10T07:37:10;14.40;54.90
70807;DHT22;58882;52.170;5.386;2023-01-10T07:39:50;14.40;54.60
70807;DHT22;58882;52.170;5.386;2023-01-10T07:42:37;14.50;54.50
70807;DHT22;58882;52.170;5.386;2023-01-10T07:45:17;14.60;54.30
70807;DHT22;58882;52.170;5.386;2023-01-10T07:48:05;14.60;54.10
70807;DHT22;58882;52.170;5.386;2023-01-10T07:50:45;14.70;54.10
70807;DHT22;58882;52.170;5.386;2023-01-10T07:53:39;14.80;53.80
70807;DHT22;58882;52.170;5.386;2023-01-10T07:56:19;14.80;53.60
70807;DHT22;58882;52.170;5.386;2023-01-10T07:59:06;14.80;53.40
70807;DHT22;58882;52.170;5.386;2023-01-10T08:01:53;14.80;53.30
70807;DHT22;58882;52.170;5.386;2023-01-10T08:04:33;14.90;53.10
70807;DHT22;58882;52.170;5.386;2023-01-10T08:07:20;14.90;53.00
70807;DHT22;58882;52.170;5.386;2023-01-10T08:09:53;15.00;52.90
70807;DHT22;58882;52.170;5.386;2023-01-10T08:12:48;15.00;52.70
70807;DHT22;58882;52.170;5.386;2023-01-10T08:15:29;15.10;52.60
70807;DHT22;58882;52.170;5.386;2023-01-10T08:18:17;15.10;52.50
70807;DHT22;58882;52.170;5.386;2023-01-10T08:20:57;15.10;52.30
70807;DHT22;58882;52.170;5.386;2023-01-10T08:23:44;15.20;52.20
70807;DHT22;58882;52.170;5.386;2023-01-10T08:26:24;15.30;52.10
70807;DHT22;58882;52.170;5.386;2023-01-10T08:29:11;15.30;52.00
70807;DHT22;58882;52.170;5.386;2023-01-10T08:31:51;15.40;51.70
70807;DHT22;58882;52.170;5.386;2023-01-10T08:34:38;15.40;51.60
70807;DHT22;58882;52.170;5.386;2023-01-10T08:37:18;15.50;51.40
70807;DHT22;58882;52.170;5.386;2023-01-10T08:40:06;15.60;51.50
70807;DHT22;58882;52.170;5.386;2023-01-10T08:42:46;15.60;51.00
70807;DHT22;58882;52.170;5.386;2023-01-10T08:45:33;15.60;50.90
70807;DHT22;58882;52.170;5.386;2023-01-10T08:48:13;15.70;50.70
70807;DHT22;58882;52.170;5.386;2023-01-10T08:51:08;15.70;50.60
70807;DHT22;58882;52.170;5.386;2023-01-10T08:53:48;15.70;50.50
70807;DHT22;58882;52.170;5.386;2023-01-10T08:56:42;15.70;50.50
70807;DHT22;58882;52.170;5.386;2023-01-10T08:59:22;15.70;50.30
70807;DHT22;58882;52.170;5.386;2023-01-10T09:02:12;15.70;50.80
70807;DHT22;58882;52.170;5.386;2023-01-10T09:04:52;15.70;50.10
70807;DHT22;58882;52.170;5.386;2023-01-10T09:08:02;15.70;50.20
70807;DHT22;58882;52.170;5.386;2023-01-10T09:10:35;15.80;50.00
70807;DHT22;58882;52.170;5.386;2023-01-10T09:13:30;15.80;50.10
70807;DHT22;58882;52.170;5.386;2023-01-10T09:16:03;15.80;49.90
70807;DHT22;58882;52.170;5.386;2023-01-10T09:18:57;15.90;50.00
70807;DHT22;58882;52.170;5.386;2023-01-10T09:21:37;15.80;49.80
70807;DHT22;58882;52.170;5.386;2023-01-10T09:24:24;15.80;49.80
70807;DHT22;58882;52.170;5.386;2023-01-10T09:27:04;15.80;49.70
70807;DHT22;58882;52.170;5.386;2023-01-10T09:29:51;15.90;49.80
70807;DHT22;58882;52.170;5.386;2023-01-10T09:32:31;15.90;49.60
70807;DHT22;58882;52.170;5.386;2023-01-10T09:35:18;15.90;49.70
70807;DHT22;58882;52.170;5.386;2023-01-10T09:37:59;15.90;49.50
70807;DHT22;58882;52.170;5.386;2023-01-10T09:44:19;15.90;49.40
70807;DHT22;58882;52.170;5.386;2023-01-10T09:52:56;16.00;49.30
70807;DHT22;58882;52.170;5.386;2023-01-10T09:55:34;15.90;49.20
70807;DHT22;58882;52.170;5.386;2023-01-10T09:58:30;16.00;49.10
70807;DHT22;58882;52.170;5.386;2023-01-10T10:01:28;16.00;49.00
70807;DHT22;58882;52.170;5.386;2023-01-10T10:04:34;16.00;48.90
70807;DHT22;58882;52.170;5.386;2023-01-10T10:07:13;16.00;48.80
70807;DHT22;58882;52.170;5.386;2023-01-10T10:10:15;16.10;48.70
70807;DHT22;58882;52.170;5.386;2023-01-10T10:13:08;16.10;48.60
70807;DHT22;58882;52.170;5.386;2023-01-10T10:16:35;16.10;48.50
70807;DHT22;58882;52.170;5.386;2023-01-10T10:19:40;16.10;48.50
70807;DHT22;58882;52.170;5.386;2023-01-10T10:26:16;16.20;48.30
70807;DHT22;58882;52.170;5.386;2023-01-10T10:29:16;16.20;48.10
70807;DHT22;58882;52.170;5.386;2023-01-10T10:35:37;16.20;48.00
70807;DHT22;58882;52.170;5.386;2023-01-10T10:38:21;16.20;47.90
70807;DHT22;58882;52.170;5.386;2023-01-10T10:41:33;16.30;47.90
70807;DHT22;58882;52.170;5.386;2023-01-10T10:44:37;16.20;47.80
70807;DHT22;58882;52.170;5.386;2023-01-10T10:47:31;16.30;48.80
70807;DHT22;58882;52.170;5.386;2023-01-10T10:53:08;16.30;47.70
70807;DHT22;58882;52.170;5.386;2023-01-10T10:55:43;16.30;47.60
70807;DHT22;58882;52.170;5.386;2023-01-10T10:58:41;16.30;47.50
70807;DHT22;58882;52.170;5.386;2023-01-10T11:01:15;16.30;48.40
70807;DHT22;58882;52.170;5.386;2023-01-10T11:04:14;16.30;47.50
70807;DHT22;58882;52.170;5.386;2023-01-10T11:06:47;16.30;47.40
70807;DHT22;58882;52.170;5.386;2023-01-10T11:09:41;16.30;47.40
70807;DHT22;58882;52.170;5.386;2023-01-10T11:12:18;16.30;47.80
70807;DHT22;58882;52.170;5.386;2023-01-10T11:15:43;16.30;47.30
70807;DHT22;58882;52.170;5.386;2023-01-10T11:18:28;16.30;47.30
70807;DHT22;58882;52.170;5.386;2023-01-10T11:21:18;16.30;47.20
70807;DHT22;58882;52.170;5.386;2023-01-10T11:23:58;16.30;47.20
70807;DHT22;58882;52.170;5.386;2023-01-10T11:26:53;16.30;48.20
70807;DHT22;58882;52.170;5.386;2023-01-10T11:29:38;16.30;47.10
70807;DHT22;58882;52.170;5.386;2023-01-10T11:32:39;16.30;47.00
70807;DHT22;58882;52.170;5.386;2023-01-10T11:35:32;16.30;47.00
70807;DHT22;58882;52.170;5.386;2023-01-10T11:38:20;16.30;47.00
70807;DHT22;58882;52.170;5.386;2023-01-10T11:41:02;16.30;47.00
70807;DHT22;58882;52.170;5.386;2023-01-10T11:46:48;16.30;47.20
70807;DHT22;58882;52.170;5.386;2023-01-10T11:49:42;16.30;47.20
70807;DHT22;58882;52.170;5.386;2023-01-10T11:52:23;16.30;47.30
70807;DHT22;58882;52.170;5.386;2023-01-10T11:55:21;16.30;47.20
70807;DHT22;58882;52.170;5.386;2023-01-10T11:58:11;16.30;47.30
70807;DHT22;58882;52.170;5.386;2023-01-10T12:01:27;16.30;47.20
70807;DHT22;58882;52.170;5.386;2023-01-10T12:04:16;16.30;47.30
70807;DHT22;58882;52.170;5.386;2023-01-10T12:07:07;16.30;47.20
70807;DHT22;58882;52.170;5.386;2023-01-10T12:12:56;16.30;47.20
70807;DHT22;58882;52.170;5.386;2023-01-10T12:15:30;16.30;47.20
70807;DHT22;58882;52.170;5.386;2023-01-10T12:18:24;16.30;47.20
70807;DHT22;58882;52.170;5.386;2023-01-10T12:20:58;16.40;47.20
70807;DHT22;58882;52.170;5.386;2023-01-10T12:23:55;16.40;47.10
70807;DHT22;58882;52.170;5.386;2023-01-10T12:26:31;16.30;47.10
70807;DHT22;58882;52.170;5.386;2023-01-10T12:29:32;16.30;47.00
70807;DHT22;58882;52.170;5.386;2023-01-10T12:32:22;16.30;47.00
70807;DHT22;58882;52.170;5.386;2023-01-10T12:35:18;16.40;47.10
70807;DHT22;58882;52.170;5.386;2023-01-10T12:44:44;16.40;47.00
70807;DHT22;58882;52.170;5.386;2023-01-10T12:50:25;16.30;46.90
70807;DHT22;58882;52.170;5.386;2023-01-10T12:53:32;16.40;47.00
70807;DHT22;58882;52.170;5.386;2023-01-10T12:56:12;16.30;46.90
70807;DHT22;58882;52.170;5.386;2023-01-10T12:59:18;16.30;46.90
70807;DHT22;58882;52.170;5.386;2023-01-10T13:02:17;16.30;46.90
70807;DHT22;58882;52.170;5.386;2023-01-10T13:05:38;16.30;46.90
70807;DHT22;58882;52.170;5.386;2023-01-10T13:08:13;16.30;46.90
70807;DHT22;58882;52.170;5.386;2023-01-10T13:11:11;16.30;46.90
70807;DHT22;58882;52.170;5.386;2023-01-10T13:13:56;16.30;46.90
70807;DHT22;58882;52.170;5.386;2023-01-10T13:16:56;16.30;46.80
70807;DHT22;58882;52.170;5.386;2023-01-10T13:19:37;16.30;46.80
70807;DHT22;58882;52.170;5.386;2023-01-10T13:22:35;16.30;46.80
70807;DHT22;58882;52.170;5.386;2023-01-10T13:25:21;16.30;46.80
70807;DHT22;58882;52.170;5.386;2023-01-10T13:28:25;16.30;46.80
70807;DHT22;58882;52.170;5.386;2023-01-10T13:31:27;16.40;47.00
70807;DHT22;58882;52.170;5.386;2023-01-10T13:34:17;16.30;46.80
70807;DHT22;58882;52.170;5.386;2023-01-10T13:37:01;16.30;46.80
70807;DHT22;58882;52.170;5.386;2023-01-10T13:39:57;16.30;46.80
70807;DHT22;58882;52.170;5.386;2023-01-10T13:42:37;16.30;46.90
70807;DHT22;58882;52.170;5.386;2023-01-10T13:55:00;16.30;46.80
70807;DHT22;58882;52.170;5.386;2023-01-10T14:03:57;16.30;46.80
70807;DHT22;58882;52.170;5.386;2023-01-10T14:06:37;16.30;46.80
70807;DHT22;58882;52.170;5.386;2023-01-10T14:09:43;16.30;46.80
70807;DHT22;58882;52.170;5.386;2023-01-10T14:12:28;16.30;46.80
70807;DHT22;58882;52.170;5.386;2023-01-10T14:15:35;16.30;46.80
70807;DHT22;58882;52.170;5.386;2023-01-10T14:18:27;16.30;46.80
70807;DHT22;58882;52.170;5.386;2023-01-10T14:21:26;16.30;46.80
70807;DHT22;58882;52.170;5.386;2023-01-10T14:24:00;16.30;46.80
70807;DHT22;58882;52.170;5.386;2023-01-10T14:26:54;16.30;46.90
70807;DHT22;58882;52.170;5.386;2023-01-10T14:29:32;16.30;46.90
70807;DHT22;58882;52.170;5.386;2023-01-10T14:32:32;16.30;46.90
70807;DHT22;58882;52.170;5.386;2023-01-10T14:35:07;16.30;48.00
70807;DHT22;58882;52.170;5.386;2023-01-10T14:38:01;16.30;47.20
70807;DHT22;58882;52.170;5.386;2023-01-10T14:40:44;16.30;47.20
70807;DHT22;58882;52.170;5.386;2023-01-10T14:43:40;16.30;47.30
70807;DHT22;58882;52.170;5.386;2023-01-10T14:46:33;16.20;47.40
70807;DHT22;58882;52.170;5.386;2023-01-10T14:49:35;16.20;47.40
70807;DHT22;58882;52.170;5.386;2023-01-10T14:52:27;16.20;47.50
70807;DHT22;58882;52.170;5.386;2023-01-10T14:55:17;16.20;47.50
70807;DHT22;58882;52.170;5.386;2023-01-10T14:58:01;16.20;47.50
70807;DHT22;58882;52.170;5.386;2023-01-10T15:00:49;16.20;47.60
70807;DHT22;58882;52.170;5.386;2023-01-10T15:03:46;16.20;47.70
70807;DHT22;58882;52.170;5.386;2023-01-10T15:06:26;16.20;47.80
70807;DHT22;58882;52.170;5.386;2023-01-10T15:09:20;16.20;47.80
70807;DHT22;58882;52.170;5.386;2023-01-10T15:12:03;16.20;47.80
70807;DHT22;58882;52.170;5.386;2023-01-10T15:15:17;16.20;47.90
70807;DHT22;58882;52.170;5.386;2023-01-10T15:17:59;16.20;48.00
70807;DHT22;58882;52.170;5.386;2023-01-10T15:20:48;16.10;48.00
70807;DHT22;58882;52.170;5.386;2023-01-10T15:23:35;16.10;48.10
70807;DHT22;58882;52.170;5.386;2023-01-10T15:26:28;16.20;48.10
70807;DHT22;58882;52.170;5.386;2023-01-10T15:29:11;16.10;48.10
70807;DHT22;58882;52.170;5.386;2023-01-10T15:32:07;16.10;48.20
70807;DHT22;58882;52.170;5.386;2023-01-10T15:34:52;16.10;48.30
70807;DHT22;58882;52.170;5.386;2023-01-10T15:37:48;16.10;48.30
70807;DHT22;58882;52.170;5.386;2023-01-10T15:40:34;16.10;48.40
70807;DHT22;58882;52.170;5.386;2023-01-10T15:43:25;16.10;48.50
70807;DHT22;58882;52.170;5.386;2023-01-10T15:46:24;16.10;48.50
70807;DHT22;58882;52.170;5.386;2023-01-10T15:49:24;16.10;48.60
70807;DHT22;58882;52.170;5.386;2023-01-10T15:52:21;16.10;48.60
70807;DHT22;58882;52.170;5.386;2023-01-10T15:55:35;16.10;48.70
70807;DHT22;58882;52.170;5.386;2023-01-10T15:58:22;16.00;48.70
70807;DHT22;58882;52.170;5.386;2023-01-10T16:01:15;16.00;49.70
70807;DHT22;58882;52.170;5.386;2023-01-10T16:04:12;16.00;48.70
70807;DHT22;58882;52.170;5.386;2023-01-10T16:07:02;16.00;48.80
70807;DHT22;58882;52.170;5.386;2023-01-10T16:09:55;16.00;48.80
70807;DHT22;58882;52.170;5.386;2023-01-10T16:12:38;16.00;48.90
70807;DHT22;58882;52.170;5.386;2023-01-10T16:15:44;16.00;48.90
70807;DHT22;58882;52.170;5.386;2023-01-10T16:18:24;15.90;49.10
70807;DHT22;58882;52.170;5.386;2023-01-10T16:21:12;16.00;49.00
70807;DHT22;58882;52.170;5.386;2023-01-10T16:23:53;15.90;49.00
70807;DHT22;58882;52.170;5.386;2023-01-10T16:26:40;15.90;49.10
70807;DHT22;58882;52.170;5.386;2023-01-10T16:29:20;15.90;49.20
70807;DHT22;58882;52.170;5.386;2023-01-10T16:32:13;16.00;49.20
70807;DHT22;58882;52.170;5.386;2023-01-10T16:34:54;15.90;49.20
70807;DHT22;58882;52.170;5.386;2023-01-10T16:37:42;15.90;49.20
70807;DHT22;58882;52.170;5.386;2023-01-10T16:40:34;15.90;49.20
70807;DHT22;58882;52.170;5.386;2023-01-10T16:43:29;15.90;49.20
70807;DHT22;58882;52.170;5.386;2023-01-10T16:46:09;15.90;49.20
70807;DHT22;58882;52.170;5.386;2023-01-10T16:48:56;15.90;49.40
70807;DHT22;58882;52.170;5.386;2023-01-10T16:51:37;15.80;49.40
70807;DHT22;58882;52.170;5.386;2023-01-10T16:54:24;15.90;49.40
70807;DHT22;58882;52.170;5.386;2023-01-10T16:57:04;15.80;49.30
70807;DHT22;58882;52.170;5.386;2023-01-10T16:59:52;15.80;49.40
70807;DHT22;58882;52.170;5.386;2023-01-10T17:02:39;15.80;49.40
70807;DHT22;58882;52.170;5.386;2023-01-10T17:05:19;15.80;49.50
70807;DHT22;58882;52.170;5.386;2023-01-10T17:08:13;15.80;49.40
70807;DHT22;58882;52.170;5.386;2023-01-10T17:10:53;15.80;49.50
70807;DHT22;58882;52.170;5.386;2023-01-10T17:13:48;15.80;49.50
70807;DHT22;58882;52.170;5.386;2023-01-10T17:16:28;15.80;49.60
70807;DHT22;58882;52.170;5.386;2023-01-10T17:19:15;15.80;49.60
70807;DHT22;58882;52.170;5.386;2023-01-10T17:21:56;15.80;49.50
70807;DHT22;58882;52.170;5.386;2023-01-10T17:24:50;15.80;49.50
70807;DHT22;58882;52.170;5.386;2023-01-10T17:27:23;15.80;49.60
70807;DHT22;58882;52.170;5.386;2023-01-10T17:30:17;15.80;49.50
70807;DHT22;58882;52.170;5.386;2023-01-10T17:32:50;15.80;49.60
70807;DHT22;58882;52.170;5.386;2023-01-10T17:35:44;15.80;49.70
70807;DHT22;58882;52.170;5.386;2023-01-10T17:38:27;15.80;49.60
70807;DHT22;58882;52.170;5.386;2023-01-10T17:41:14;15.80;49.60
70807;DHT22;58882;52.170;5.386;2023-01-10T17:43:54;15.80;49.80
70807;DHT22;58882;52.170;5.386;2023-01-10T17:46:48;15.80;49.80
70807;DHT22;58882;52.170;5.386;2023-01-10T17:49:22;15.80;49.80
70807;DHT22;58882;52.170;5.386;2023-01-10T17:52:16;15.80;49.70
70807;DHT22;58882;52.170;5.386;2023-01-10T17:54:50;15.80;49.80
70807;DHT22;58882;52.170;5.386;2023-01-10T17:57:44;15.80;49.90
70807;DHT22;58882;52.170;5.386;2023-01-10T18:00:18;15.80;49.90
70807;DHT22;58882;52.170;5.386;2023-01-10T18:03:12;15.80;49.90
70807;DHT22;58882;52.170;5.386;2023-01-10T18:06:07;15.80;49.90
70807;DHT22;58882;52.170;5.386;2023-01-10T18:08:59;15.80;49.90
70807;DHT22;58882;52.170;5.386;2023-01-10T18:11:39;15.80;50.00
70807;DHT22;58882;52.170;5.386;2023-01-10T18:14:33;15.80;50.00
70807;DHT22;58882;52.170;5.386;2023-01-10T18:17:13;15.80;50.10
70807;DHT22;58882;52.170;5.386;2023-01-10T18:20:01;15.80;50.10
70807;DHT22;58882;52.170;5.386;2023-01-10T18:22:41;15.90;50.10
70807;DHT22;58882;52.170;5.386;2023-01-10T18:26:02;15.90;50.10
70807;DHT22;58882;52.170;5.386;2023-01-10T18:28:40;15.80;50.10
70807;DHT22;58882;52.170;5.386;2023-01-10T18:31:34;15.80;50.30
70807;DHT22;58882;52.170;5.386;2023-01-10T18:34:15;15.80;50.30
70807;DHT22;58882;52.170;5.386;2023-01-10T18:37:09;15.80;50.40
70807;DHT22;58882;52.170;5.386;2023-01-10T18:39:49;15.80;50.40
70807;DHT22;58882;52.170;5.386;2023-01-10T18:42:43;15.80;50.50
70807;DHT22;58882;52.170;5.386;2023-01-10T18:45:16;15.90;50.70
70807;DHT22;58882;52.170;5.386;2023-01-10T18:48:13;15.90;50.60
70807;DHT22;58882;52.170;5.386;2023-01-10T18:50:52;15.90;50.70
70807;DHT22;58882;52.170;5.386;2023-01-10T18:53:47;15.90;50.70
70807;DHT22;58882;52.170;5.386;2023-01-10T18:56:20;15.90;50.80
70807;DHT22;58882;52.170;5.386;2023-01-10T18:59:14;15.90;50.80
70807;DHT22;58882;52.170;5.386;2023-01-10T19:02:01;15.90;50.80
70807;DHT22;58882;52.170;5.386;2023-01-10T19:04:55;15.90;50.80
70807;DHT22;58882;52.170;5.386;2023-01-10T19:07:35;15.90;50.90